createdAt,value
2018-08-04T00:01:28.953Z,3.20
2018-08-04T00:03:57.688Z,3.67
2018-08-04T00:06:26.437Z,3.73
2018-08-04T00:08:55.166Z,3.30
2018-08-04T00:11:23.841Z,3.20
2018-08-04T00:13:52.565Z,3.40
2018-08-04T00:16:21.332Z,3.50
2018-08-04T00:18:50.038Z,3.40
2018-08-04T00:21:18.756Z,3.60
2018-08-04T00:23:47.506Z,3.50
2018-08-04T00:26:16.220Z,3.50
2018-08-04T00:28:44.976Z,3.43
2018-08-04T00:31:13.702Z,3.03
2018-08-04T00:33:42.403Z,3.47
2018-08-04T00:36:11.104Z,3.33
2018-08-04T00:38:39.802Z,3.33
2018-08-04T00:41:08.530Z,3.53
2018-08-04T00:43:37.232Z,3.70
2018-08-04T00:46:05.998Z,3.43
2018-08-04T00:48:34.772Z,3.10
2018-08-04T00:51:03.516Z,3.30
2018-08-04T00:53:32.248Z,3.73
2018-08-04T00:56:00.954Z,3.63
2018-08-04T00:58:29.449Z,3.47
2018-08-04T01:00:58.468Z,3.23
2018-08-04T01:03:27.172Z,3.40
2018-08-04T01:05:55.891Z,3.23
2018-08-04T01:08:24.523Z,3.20
2018-08-04T01:10:53.167Z,3.23
2018-08-04T01:13:21.872Z,3.47
2018-08-04T01:15:50.798Z,3.33
2018-08-04T01:18:19.699Z,3.60
2018-08-04T01:20:48.568Z,4.00
2018-08-04T01:23:17.473Z,3.50
2018-08-04T01:25:46.385Z,3.70
2018-08-04T01:28:15.489Z,3.60
2018-08-04T01:30:44.350Z,3.80
2018-08-04T01:33:13.275Z,3.50
2018-08-04T01:35:42.139Z,3.60
2018-08-04T01:38:10.975Z,3.70
2018-08-04T01:40:39.610Z,3.50
2018-08-04T01:43:08.376Z,3.33
2018-08-04T01:45:43.879Z,3.60
2018-08-04T01:48:12.714Z,3.63
2018-08-04T01:50:41.870Z,3.40
2018-08-04T01:53:10.757Z,3.20
2018-08-04T01:55:39.686Z,3.30
2018-08-04T01:58:08.518Z,3.60
2018-08-04T02:00:37.708Z,3.90
2018-08-04T02:03:06.710Z,3.50
2018-08-04T02:05:35.611Z,3.63
2018-08-04T02:10:39.694Z,3.80
2018-08-04T02:13:08.601Z,3.53
2018-08-04T02:15:37.541Z,3.63
2018-08-04T02:18:06.371Z,3.63
2018-08-04T02:20:35.233Z,3.90
2018-08-04T02:23:03.827Z,3.53
2018-08-04T02:25:32.580Z,3.20
2018-08-04T02:28:01.480Z,3.70
2018-08-04T02:30:30.374Z,3.63
2018-08-04T02:32:59.287Z,3.37
2018-08-04T02:35:28.099Z,3.37
2018-08-04T02:37:59.940Z,3.93
2018-08-04T02:40:29.441Z,3.60
2018-08-04T02:42:58.044Z,3.83
2018-08-04T02:45:26.899Z,3.67
2018-08-04T02:47:55.760Z,3.60
2018-08-04T02:50:24.606Z,3.80
2018-08-04T02:52:53.934Z,4.10
2018-08-04T02:55:22.788Z,3.90
2018-08-04T02:57:51.804Z,3.73
2018-08-04T03:00:20.678Z,3.70
2018-08-04T03:02:49.554Z,4.23
2018-08-04T03:05:18.451Z,3.90
2018-08-04T03:07:47.290Z,4.20
2018-08-04T03:10:16.176Z,3.93
2018-08-04T03:12:45.071Z,4.00
2018-08-04T03:15:13.892Z,3.87
2018-08-04T03:17:42.809Z,4.30
2018-08-04T03:20:11.663Z,5.07
2018-08-04T03:22:40.514Z,3.53
2018-08-04T03:25:09.340Z,4.20
2018-08-04T03:27:38.182Z,4.20
2018-08-04T03:30:07.141Z,4.17
2018-08-04T03:32:36.033Z,4.07
2018-08-04T03:35:05.292Z,4.50
2018-08-04T03:37:34.196Z,4.07
2018-08-04T03:40:03.038Z,4.00
2018-08-04T03:42:32.095Z,3.70
2018-08-04T03:45:01.043Z,3.73
2018-08-04T03:47:29.877Z,3.77
2018-08-04T03:49:58.837Z,3.70
2018-08-04T03:52:27.727Z,3.97
2018-08-04T03:54:56.545Z,4.00
2018-08-04T03:57:25.377Z,4.20
2018-08-04T03:59:54.205Z,3.57
2018-08-04T04:02:23.042Z,3.90
2018-08-04T04:04:51.903Z,3.70
2018-08-04T04:07:20.768Z,3.90
2018-08-04T04:09:49.647Z,3.57
2018-08-04T04:12:18.498Z,4.73
2018-08-04T04:14:47.365Z,3.90
2018-08-04T04:17:16.223Z,4.17
2018-08-04T04:19:45.092Z,5.03
2018-08-04T04:22:13.909Z,4.73
2018-08-04T04:24:42.774Z,4.10
2018-08-04T04:27:11.627Z,3.90
2018-08-04T04:29:40.500Z,3.93
2018-08-04T04:32:09.367Z,4.30
2018-08-04T04:34:38.199Z,4.27
2018-08-04T04:37:07.062Z,4.70
2018-08-04T04:39:35.983Z,4.40
2018-08-04T04:42:04.809Z,4.13
2018-08-04T04:44:34.316Z,4.07
2018-08-04T04:47:03.176Z,4.00
2018-08-04T04:49:32.040Z,3.97
2018-08-04T04:52:00.914Z,5.33
2018-08-04T04:54:29.754Z,4.70
2018-08-04T04:56:58.581Z,4.37
2018-08-04T04:59:27.414Z,4.57
2018-08-04T05:01:56.242Z,5.50
2018-08-04T05:04:25.089Z,4.33
2018-08-04T05:06:53.959Z,4.30
2018-08-04T05:09:22.876Z,3.63
2018-08-04T05:11:51.763Z,4.70
2018-08-04T05:14:20.665Z,3.90
2018-08-04T05:16:49.595Z,4.07
2018-08-04T05:19:18.465Z,3.83
2018-08-04T05:21:47.636Z,3.90
2018-08-04T05:24:16.909Z,4.37
2018-08-04T05:26:45.827Z,3.90
2018-08-04T05:29:14.967Z,4.70
2018-08-04T05:31:44.007Z,3.60
2018-08-04T05:34:12.829Z,4.00
2018-08-04T05:36:41.668Z,3.90
2018-08-04T05:39:12.200Z,4.20
2018-08-04T05:41:41.076Z,3.50
2018-08-04T05:44:10.027Z,3.43
2018-08-04T05:46:38.860Z,3.50
2018-08-04T05:49:07.678Z,3.30
2018-08-04T05:51:36.538Z,3.27
2018-08-04T05:54:05.373Z,3.47
2018-08-04T05:56:34.219Z,3.50
2018-08-04T05:59:03.147Z,3.67
2018-08-04T06:01:32.074Z,3.47
2018-08-04T06:04:00.872Z,3.30
2018-08-04T06:06:29.476Z,3.23
2018-08-04T06:08:58.235Z,3.50
2018-08-04T06:11:27.090Z,3.33
2018-08-04T06:13:56.096Z,3.53
2018-08-04T06:16:24.982Z,3.63
2018-08-04T06:18:54.454Z,3.70
2018-08-04T06:21:23.386Z,3.63
2018-08-04T06:23:52.284Z,3.93
2018-08-04T06:26:21.129Z,3.50
2018-08-04T06:28:50.087Z,4.27
2018-08-04T06:31:19.062Z,3.73
2018-08-04T06:33:47.981Z,3.30
2018-08-04T06:36:16.812Z,3.70
2018-08-04T06:38:45.704Z,3.33
2018-08-04T06:41:14.518Z,3.23
2018-08-04T06:43:43.355Z,4.07
2018-08-04T06:46:12.230Z,3.77
2018-08-04T06:48:41.144Z,3.50
2018-08-04T06:51:10.061Z,3.70
2018-08-04T06:53:38.984Z,3.67
2018-08-04T06:56:07.823Z,3.40
2018-08-04T06:58:36.892Z,3.33
2018-08-04T07:01:05.767Z,3.10
2018-08-04T07:03:34.653Z,3.60
2018-08-04T07:06:03.481Z,3.70
2018-08-04T07:08:32.431Z,3.23
2018-08-04T07:11:01.149Z,3.70
2018-08-04T07:13:29.834Z,3.47
2018-08-04T07:15:58.567Z,3.53
2018-08-04T07:18:27.311Z,3.97
2018-08-04T07:20:56.661Z,8.67
2018-08-04T07:23:25.505Z,3.67
2018-08-04T07:25:54.383Z,3.37
2018-08-04T07:28:23.199Z,3.47
2018-08-04T07:30:52.211Z,3.27
2018-08-04T07:33:21.299Z,3.00
2018-08-04T07:35:50.193Z,2.80
2018-08-04T07:38:19.161Z,3.03
2018-08-04T07:40:48.036Z,3.47
2018-08-04T07:43:16.882Z,3.37
2018-08-04T07:45:45.699Z,3.43
2018-08-04T07:48:14.667Z,3.10
2018-08-04T07:50:43.552Z,2.87
2018-08-04T07:53:12.431Z,3.30
2018-08-04T07:55:41.438Z,3.90
2018-08-04T07:58:10.558Z,3.83
2018-08-04T08:00:39.399Z,3.90
2018-08-04T08:03:08.271Z,3.60
2018-08-04T08:05:37.117Z,3.50
2018-08-04T08:08:06.013Z,3.33
2018-08-04T08:10:34.985Z,3.30
2018-08-04T08:13:03.827Z,3.67
2018-08-04T08:15:32.786Z,3.53
2018-08-04T08:18:01.670Z,3.80
2018-08-04T08:20:30.502Z,3.40
2018-08-04T08:22:59.410Z,3.37
2018-08-04T08:25:28.304Z,3.20
2018-08-04T08:27:57.272Z,3.33
2018-08-04T08:30:26.184Z,3.30
2018-08-04T08:32:55.101Z,3.57
2018-08-04T08:35:23.951Z,3.47
2018-08-04T08:37:52.872Z,4.13
2018-08-04T08:40:21.753Z,3.60
2018-08-04T08:42:52.758Z,3.43
2018-08-04T08:45:22.552Z,3.53
2018-08-04T08:47:53.611Z,3.73
2018-08-04T08:50:22.491Z,3.50
2018-08-04T08:52:51.343Z,3.57
2018-08-04T08:55:20.272Z,3.83
2018-08-04T08:57:49.120Z,3.20
2018-08-04T09:00:18.040Z,3.67
2018-08-04T09:02:48.437Z,3.70
2018-08-04T09:05:17.319Z,6.27
2018-08-04T09:07:46.241Z,4.83
2018-08-04T09:10:15.137Z,3.70
2018-08-04T09:12:44.061Z,3.67
2018-08-04T09:15:12.991Z,3.30
2018-08-04T09:17:41.903Z,4.10
2018-08-04T09:20:11.416Z,3.65
2018-08-04T09:22:40.277Z,3.25
2018-08-04T09:25:09.582Z,3.30
2018-08-04T09:27:39.213Z,3.47
2018-08-04T09:30:10.395Z,3.40
2018-08-04T09:32:39.362Z,4.70
2018-08-04T09:35:08.073Z,3.98
2018-08-04T09:37:36.846Z,3.42
2018-08-04T09:40:08.083Z,3.85
2018-08-04T09:42:37.368Z,5.22
2018-08-04T09:45:07.441Z,5.50
2018-08-04T09:47:36.597Z,4.50
2018-08-04T09:50:06.545Z,3.70
2018-08-04T09:52:35.529Z,4.20
2018-08-04T09:55:04.730Z,4.20
2018-08-04T09:57:33.624Z,4.20
2018-08-04T10:00:02.550Z,3.50
2018-08-04T10:02:31.304Z,3.35
2018-08-04T10:05:02.051Z,3.40
2018-08-04T10:07:30.565Z,3.40
2018-08-04T10:09:59.330Z,3.90
2018-08-04T10:12:28.094Z,3.75
2018-08-04T10:14:56.840Z,3.90
2018-08-04T10:17:25.752Z,3.77
2018-08-04T10:19:54.652Z,4.42
2018-08-04T10:22:23.578Z,4.33
2018-08-04T10:24:52.436Z,3.80
2018-08-04T10:27:21.440Z,3.58
2018-08-04T10:29:50.368Z,3.65
2018-08-04T10:32:19.229Z,3.85
2018-08-04T10:34:48.144Z,4.40
2018-08-04T10:37:17.008Z,6.28
2018-08-04T10:39:45.898Z,3.60
2018-08-04T10:42:14.783Z,3.45
2018-08-04T10:44:46.425Z,3.70
2018-08-04T10:47:17.235Z,3.80
2018-08-04T10:49:46.143Z,3.60
2018-08-04T10:52:15.060Z,3.58
2018-08-04T10:54:44.005Z,3.25
2018-08-04T10:57:12.875Z,3.55
2018-08-04T10:59:43.825Z,3.60
2018-08-04T11:02:12.779Z,3.50
2018-08-04T11:04:41.625Z,3.55
2018-08-04T11:07:10.543Z,3.92
2018-08-04T11:09:39.395Z,3.80
2018-08-04T11:12:08.285Z,3.40
2018-08-04T11:14:37.304Z,3.92
2018-08-04T11:17:06.348Z,3.45
2018-08-04T11:19:35.431Z,3.62
2018-08-04T11:22:06.809Z,4.37
2018-08-04T11:24:35.759Z,4.00
2018-08-04T11:29:53.252Z,3.92
2018-08-04T11:32:22.086Z,3.90
2018-08-04T11:34:50.943Z,4.10
2018-08-04T11:37:19.733Z,3.90
2018-08-04T11:39:48.458Z,4.35
2018-08-04T11:42:17.175Z,4.05
2018-08-04T11:44:45.994Z,3.77
2018-08-04T11:47:14.641Z,4.33
2018-08-04T11:49:43.333Z,4.20
2018-08-04T11:52:12.003Z,4.47
2018-08-04T11:54:40.675Z,4.03
2018-08-04T11:57:09.399Z,4.28
2018-08-04T11:59:38.049Z,4.50
2018-08-04T12:02:06.927Z,4.45
2018-08-04T12:04:35.731Z,4.45
2018-08-04T12:07:04.563Z,4.20
2018-08-04T12:09:33.367Z,4.40
2018-08-04T12:12:02.086Z,4.87
2018-08-04T12:14:37.251Z,4.45
2018-08-04T12:17:05.938Z,5.50
2018-08-04T12:19:34.863Z,4.72
2018-08-04T12:22:03.359Z,4.53
2018-08-04T12:24:31.952Z,4.60
2018-08-04T12:27:00.630Z,4.50
2018-08-04T12:29:29.325Z,4.22
2018-08-04T12:31:57.983Z,5.53
2018-08-04T12:34:26.645Z,4.60
2018-08-04T12:36:55.440Z,4.42
2018-08-04T12:39:24.100Z,5.10
2018-08-04T12:41:52.763Z,4.50
2018-08-04T12:44:21.448Z,4.87
2018-08-04T12:46:50.128Z,5.22
2018-08-04T12:49:18.806Z,5.08
2018-08-04T12:51:47.487Z,4.42
2018-08-04T12:54:16.157Z,4.90
2018-08-04T12:56:44.809Z,4.50
2018-08-04T12:59:13.474Z,4.70
2018-08-04T13:01:42.260Z,4.25
2018-08-04T13:04:10.917Z,5.00
2018-08-04T13:06:39.712Z,5.05
2018-08-04T13:09:09.755Z,6.30
2018-08-04T13:11:38.504Z,5.33
2018-08-04T13:14:07.213Z,5.10
2018-08-04T13:16:35.892Z,5.15
2018-08-04T13:19:05.169Z,5.08
2018-08-04T13:21:33.844Z,5.10
2018-08-04T13:24:02.514Z,5.47
2018-08-04T13:26:31.215Z,4.80
2018-08-04T13:28:59.895Z,5.33
2018-08-04T13:31:28.580Z,5.15
2018-08-04T13:33:57.288Z,5.35
2018-08-04T13:36:25.998Z,6.20
2018-08-04T13:38:54.736Z,5.12
2018-08-04T13:41:23.407Z,5.20
2018-08-04T13:43:52.077Z,5.37
2018-08-04T13:46:20.741Z,5.05
2018-08-04T13:48:49.499Z,5.47
2018-08-04T13:51:18.155Z,5.15
2018-08-04T13:53:46.847Z,5.17
2018-08-04T13:56:15.554Z,5.12
2018-08-04T13:58:44.191Z,5.30
2018-08-04T14:01:12.859Z,5.15
2018-08-04T14:03:41.534Z,5.28
2018-08-04T14:06:10.270Z,4.97
2018-08-04T14:08:38.923Z,5.03
2018-08-04T14:11:07.619Z,5.37
2018-08-04T14:13:36.545Z,5.40
2018-08-04T14:16:05.366Z,4.80
2018-08-04T14:18:34.006Z,5.35
2018-08-04T14:21:02.832Z,5.37
2018-08-04T14:23:31.467Z,5.30
2018-08-04T14:26:00.093Z,5.35
2018-08-04T14:28:28.829Z,5.47
2018-08-04T14:30:57.432Z,5.58
2018-08-04T14:33:26.200Z,5.65
2018-08-04T14:35:54.852Z,5.10
2018-08-04T14:38:23.552Z,4.90
2018-08-04T14:40:52.367Z,5.20
2018-08-04T14:43:21.099Z,5.53
2018-08-04T14:45:49.805Z,4.92
2018-08-04T14:48:18.558Z,5.92
2018-08-04T14:50:47.260Z,5.80
2018-08-04T14:53:15.908Z,4.87
2018-08-04T14:55:44.649Z,5.12
2018-08-04T14:58:13.396Z,4.72
2018-08-04T15:00:42.069Z,5.53
2018-08-04T15:03:10.722Z,5.12
2018-08-04T15:05:39.433Z,5.28
2018-08-04T15:08:08.245Z,5.47
2018-08-04T15:10:36.956Z,5.50
2018-08-04T15:13:05.666Z,5.33
2018-08-04T15:15:34.315Z,5.25
2018-08-04T15:18:02.986Z,5.03
2018-08-04T15:20:31.805Z,5.20
2018-08-04T15:23:00.509Z,5.70
2018-08-04T15:25:29.194Z,5.70
2018-08-04T15:27:57.912Z,9.38
2018-08-04T15:30:26.838Z,5.80
2018-08-04T15:32:55.515Z,5.20
2018-08-04T15:35:24.244Z,5.08
2018-08-04T15:37:52.939Z,5.65
2018-08-04T15:40:21.772Z,5.00
2018-08-04T15:42:50.681Z,5.97
2018-08-04T15:45:19.404Z,5.15
2018-08-04T15:47:48.364Z,6.33
2018-08-04T15:50:18.214Z,5.55
2018-08-04T15:52:46.925Z,5.85
2018-08-04T15:55:15.679Z,6.17
2018-08-04T15:57:44.352Z,6.42
2018-08-04T16:00:13.159Z,5.62
2018-08-04T16:02:41.873Z,7.22
2018-08-04T16:05:10.642Z,6.17
2018-08-04T16:07:39.737Z,6.17
2018-08-04T16:10:08.439Z,5.70
2018-08-04T16:12:37.111Z,5.53
2018-08-04T16:15:05.963Z,5.17
2018-08-04T16:17:34.683Z,6.20
2018-08-04T16:20:04.065Z,6.40
2018-08-04T16:22:32.929Z,5.72
2018-08-04T16:25:01.909Z,6.03
2018-08-04T16:27:30.618Z,5.92
2018-08-04T16:29:59.405Z,5.97
2018-08-04T16:32:28.129Z,5.92
2018-08-04T16:34:56.811Z,6.37
2018-08-04T16:37:25.488Z,6.40
2018-08-04T16:39:54.173Z,5.97
2018-08-04T16:42:22.906Z,6.10
2018-08-04T16:44:51.584Z,6.42
2018-08-04T16:47:20.278Z,6.72
2018-08-04T16:49:48.968Z,6.45
2018-08-04T16:52:17.677Z,6.10
2018-08-04T16:54:46.324Z,6.45
2018-08-04T16:57:15.000Z,6.00
2018-08-04T16:59:44.248Z,6.20
2018-08-04T17:02:12.908Z,6.03
2018-08-04T17:04:41.592Z,6.08
2018-08-04T17:07:10.377Z,6.00
2018-08-04T17:09:39.057Z,6.20
2018-08-04T17:12:07.787Z,6.58
2018-08-04T17:14:36.461Z,6.08
2018-08-04T17:17:05.221Z,6.78
2018-08-04T17:19:34.161Z,6.10
2018-08-04T17:22:03.919Z,5.95
2018-08-04T17:24:32.665Z,6.05
2018-08-04T17:27:01.581Z,6.12
2018-08-04T17:29:30.379Z,5.78
2018-08-04T17:31:59.065Z,5.30
2018-08-04T17:34:27.743Z,6.70
2018-08-04T17:36:56.507Z,6.70
2018-08-04T17:39:24.960Z,5.33
2018-08-04T17:41:53.565Z,5.97
2018-08-04T17:44:22.288Z,5.60
2018-08-04T17:46:50.993Z,6.22
2018-08-04T17:49:19.692Z,5.50
2018-08-04T17:51:48.401Z,8.33
2018-08-04T17:54:17.179Z,6.12
2018-08-04T17:56:46.099Z,5.40
2018-08-04T17:59:14.845Z,6.25
2018-08-04T18:01:43.745Z,12.47
2018-08-04T18:04:12.414Z,7.85
2018-08-04T18:06:41.167Z,6.30
2018-08-04T18:09:10.283Z,5.90
2018-08-04T18:11:39.907Z,5.92
2018-08-04T18:14:08.669Z,6.17
2018-08-04T18:16:37.365Z,5.55
2018-08-04T18:19:06.115Z,6.60
2018-08-04T18:21:34.814Z,6.80
2018-08-04T18:24:03.467Z,5.67
2018-08-04T18:26:32.151Z,6.13
2018-08-04T18:29:00.827Z,5.80
2018-08-04T18:31:29.525Z,5.17
2018-08-04T18:33:58.218Z,5.30
2018-08-04T18:36:26.942Z,4.97
2018-08-04T18:38:55.604Z,5.00
2018-08-04T18:41:24.258Z,4.87
2018-08-04T18:43:53.133Z,4.77
2018-08-04T18:46:21.892Z,5.00
2018-08-04T18:48:50.607Z,5.03
2018-08-04T18:51:19.291Z,5.03
2018-08-04T18:53:47.941Z,5.10
2018-08-04T18:56:16.603Z,4.77
2018-08-04T18:58:45.352Z,5.17
2018-08-04T19:01:14.082Z,6.10
2018-08-04T19:03:42.764Z,5.60
2018-08-04T19:06:11.432Z,5.40
2018-08-04T19:08:40.120Z,5.37
2018-08-04T19:11:08.882Z,5.10
2018-08-04T19:13:37.520Z,5.20
2018-08-04T19:16:06.396Z,4.80
2018-08-04T19:18:35.059Z,4.23
2018-08-04T19:21:03.758Z,4.53
2018-08-04T19:23:32.424Z,5.97
2018-08-04T19:26:01.124Z,4.43
2018-08-04T19:28:29.835Z,4.63
2018-08-04T19:30:58.512Z,4.73
2018-08-04T19:33:27.170Z,5.17
2018-08-04T19:35:55.823Z,4.80
2018-08-04T19:38:24.541Z,5.07
2018-08-04T19:40:53.167Z,5.00
2018-08-04T19:43:21.885Z,5.10
2018-08-04T19:45:50.601Z,5.27
2018-08-04T19:48:19.373Z,5.57
2018-08-04T19:50:48.115Z,6.00
2018-08-04T19:53:16.789Z,6.50
2018-08-04T19:55:46.306Z,6.07
2018-08-04T19:58:14.950Z,6.10
2018-08-04T20:00:43.774Z,6.73
2018-08-04T20:03:12.675Z,6.13
2018-08-04T20:05:41.493Z,6.20
2018-08-04T20:08:10.516Z,7.43
2018-08-04T20:10:38.959Z,6.13
2018-08-04T20:13:07.528Z,6.50
2018-08-04T20:15:36.239Z,6.20
2018-08-04T20:18:04.907Z,6.90
2018-08-04T20:20:34.062Z,5.90
2018-08-04T20:23:02.717Z,6.07
2018-08-04T20:25:31.423Z,10.47
2018-08-04T20:28:00.068Z,5.70
2018-08-04T20:30:28.770Z,5.87
2018-08-04T20:32:57.413Z,5.90
2018-08-04T20:35:26.494Z,5.97
2018-08-04T20:37:55.173Z,6.70
2018-08-04T20:40:25.146Z,5.83
2018-08-04T20:42:53.796Z,5.57
2018-08-04T20:45:22.494Z,5.37
2018-08-04T20:47:51.235Z,6.23
2018-08-04T20:50:19.919Z,6.33
2018-08-04T20:52:48.702Z,5.67
2018-08-04T20:55:17.316Z,5.97
2018-08-04T20:57:46.018Z,6.97
2018-08-04T21:00:14.724Z,5.67
2018-08-04T21:02:43.404Z,7.43
2018-08-04T21:05:12.138Z,5.30
2018-08-04T21:07:40.852Z,5.93
2018-08-04T21:10:09.486Z,5.93
2018-08-04T21:12:38.195Z,6.70
2018-08-04T21:15:06.684Z,7.43
2018-08-04T21:17:35.254Z,6.17
2018-08-04T21:20:03.860Z,6.10
2018-08-04T21:22:32.446Z,5.77
2018-08-04T21:25:01.092Z,6.00
2018-08-04T21:27:29.555Z,6.00
2018-08-04T21:29:58.132Z,6.27
2018-08-04T21:32:26.942Z,5.50
2018-08-04T21:34:55.666Z,5.67
2018-08-04T21:37:24.544Z,5.60
2018-08-04T21:39:53.490Z,6.30
2018-08-04T21:42:22.321Z,5.90
2018-08-04T21:44:51.289Z,5.47
2018-08-04T21:47:20.132Z,5.17
2018-08-04T21:49:49.046Z,5.33
2018-08-04T21:52:17.963Z,5.27
2018-08-04T21:54:46.832Z,5.33
2018-08-04T21:57:15.765Z,5.40
2018-08-04T21:59:46.611Z,5.60
2018-08-04T22:02:15.151Z,5.20
2018-08-04T22:04:44.246Z,5.20
2018-08-04T22:07:50.193Z,5.50
2018-08-04T22:10:18.869Z,6.03
2018-08-04T22:12:47.531Z,5.17
2018-08-04T22:15:16.563Z,5.43
2018-08-04T22:17:45.229Z,5.67
2018-08-04T22:20:15.177Z,5.50
2018-08-04T22:22:44.185Z,4.70
2018-08-04T22:25:14.891Z,4.57
2018-08-04T22:27:43.588Z,5.80
2018-08-04T22:30:14.411Z,5.17
2018-08-04T22:32:43.602Z,4.90
2018-08-04T22:35:12.310Z,5.10
2018-08-04T22:37:41.483Z,4.70
2018-08-04T22:40:11.207Z,4.77
2018-08-04T22:42:40.187Z,4.60
2018-08-04T22:45:54.140Z,4.70
2018-08-04T22:48:23.231Z,5.00
2018-08-04T22:50:52.250Z,5.00
2018-08-04T22:53:22.043Z,5.13
2018-08-04T22:55:50.728Z,4.73
2018-08-04T22:58:19.415Z,4.70
2018-08-04T23:00:48.096Z,4.63
2018-08-04T23:03:16.780Z,4.90
2018-08-04T23:05:46.038Z,5.50
2018-08-04T23:08:14.974Z,5.07
2018-08-04T23:10:44.291Z,5.03
2018-08-04T23:13:13.388Z,5.13
2018-08-04T23:15:42.098Z,4.57
2018-08-04T23:20:45.900Z,4.80
2018-08-04T23:23:14.632Z,4.50
2018-08-04T23:25:43.298Z,5.40
2018-08-04T23:28:11.940Z,5.13
2018-08-04T23:30:40.768Z,4.87
2018-08-04T23:33:09.566Z,4.83
2018-08-04T23:35:38.409Z,4.80
2018-08-04T23:38:07.156Z,5.03
2018-08-04T23:40:35.934Z,4.73
2018-08-04T23:43:04.795Z,4.87
2018-08-04T23:45:33.625Z,5.13
2018-08-04T23:48:02.292Z,5.60
2018-08-04T23:50:31.189Z,5.50
2018-08-04T23:52:59.852Z,5.20
2018-08-04T23:55:28.530Z,5.20
2018-08-04T23:57:57.200Z,5.03
